Terminal Aerodrome Forecast
Issued by NWS

Home | Current Version | Previous Version | Text Only | Print | Product List | Glossary On
Versions: 1 2 3 4 5 6 7 8 9 10 11 12 13 14 15 16 17 18 19 20 21
000
FTUS45 KSLC 250118 AAB
TAFEVW
TAF AMD
KEVW 250118Z 2501/2524 22019G29KT P6SM -SHRA SCT020 BKN040
      TEMPO 2501/2502 5SM TSRA BKN020 OVC030CB
     FM250300 23012KT P6SM SCT050 BKN090
     FM251300 24010KT P6SM SCT040 BKN080
     FM251700 25013G19KT P6SM VCSH SCT030 BKN060=

USA.gov is the U.S. government's official web portal to all federal, state and local government web resources and services.